Albany Airport (Australia)

Airport
ICAO code: 
YABA
IATA Code: 
ALH
Summary
ICAO Region: 
APAC
Territory: 
Location: 
Drome, Western Australia
Serving: 
Albany
Elevation: 
233 ft
Coordinates: 
Aerial View: 
34° 56' 35.88" S, 117° 48' 32.4" E
Metar
Observation
YABA 301800Z AUTO 31007KT 9999 // NCD 09/07 Q1015
Station
Albany Aerodrome
Date/Time
2021-11-30 18:00:00
Wind direction
310°
Wind speed
07 kts
Lowest cloud amount
no clouds detected
Temperature
9°C
Dew point
7°C
Humidity
87%
QNH
1015 hPa
Weather condition
n/a

Runways

Designator Length Width Surface Rops
5/23 1096 30 GVL No/No
14/32 1800 30 ASP No/No
Airport map: 
Aerial View: 

SKYbrary Partners:

Safety knowledge contributed by: